sensor_id;sensor_type;location;lat;lon;timestamp;temperature;humidity
32097;DHT22;18610;49.916;8.284;2023-12-20T00:01:35;5.60;99.90
32097;DHT22;18610;49.916;8.284;2023-12-20T00:04:02;5.60;99.90
32097;DHT22;18610;49.916;8.284;2023-12-20T00:06:29;5.60;99.90
32097;DHT22;18610;49.916;8.284;2023-12-20T00:08:55;5.50;99.90
32097;DHT22;18610;49.916;8.284;2023-12-20T00:11:24;5.60;99.90
32097;DHT22;18610;49.916;8.284;2023-12-20T00:13:51;5.60;99.90
32097;DHT22;18610;49.916;8.284;2023-12-20T00:16:18;5.60;99.90
32097;DHT22;18610;49.916;8.284;2023-12-20T00:18:45;5.60;99.90
32097;DHT22;18610;49.916;8.284;2023-12-20T00:21:11;5.60;99.90
32097;DHT22;18610;49.916;8.284;2023-12-20T00:23:38;5.60;99.90
32097;DHT22;18610;49.916;8.284;2023-12-20T00:26:05;5.60;99.90
32097;DHT22;18610;49.916;8.284;2023-12-20T00:28:33;5.60;99.90
32097;DHT22;18610;49.916;8.284;2023-12-20T00:30:59;5.70;99.90
32097;DHT22;18610;49.916;8.284;2023-12-20T00:33:26;5.60;99.90
32097;DHT22;18610;49.916;8.284;2023-12-20T00:35:53;5.60;99.90
32097;DHT22;18610;49.916;8.284;2023-12-20T00:38:19;5.60;99.90
32097;DHT22;18610;49.916;8.284;2023-12-20T00:40:46;5.60;99.90
32097;DHT22;18610;49.916;8.284;2023-12-20T00:43:15;5.60;99.90
32097;DHT22;18610;49.916;8.284;2023-12-20T00:45:43;5.50;99.90
32097;DHT22;18610;49.916;8.284;2023-12-20T00:48:09;5.50;99.90
32097;DHT22;18610;49.916;8.284;2023-12-20T00:50:36;5.50;99.90
32097;DHT22;18610;49.916;8.284;2023-12-20T00:53:03;5.50;99.90
32097;DHT22;18610;49.916;8.284;2023-12-20T00:55:30;5.60;99.90
32097;DHT22;18610;49.916;8.284;2023-12-20T00:57:56;5.60;99.90
32097;DHT22;18610;49.916;8.284;2023-12-20T01:00:24;5.60;99.90
32097;DHT22;18610;49.916;8.284;2023-12-20T01:02:52;5.60;99.90
32097;DHT22;18610;49.916;8.284;2023-12-20T01:05:19;5.60;99.90
32097;DHT22;18610;49.916;8.284;2023-12-20T01:07:48;5.60;99.90
32097;DHT22;18610;49.916;8.284;2023-12-20T01:10:15;5.60;99.90
32097;DHT22;18610;49.916;8.284;2023-12-20T01:12:43;5.60;99.90
32097;DHT22;18610;49.916;8.284;2023-12-20T01:15:10;5.70;99.90
32097;DHT22;18610;49.916;8.284;2023-12-20T01:17:36;5.70;99.90
32097;DHT22;18610;49.916;8.284;2023-12-20T01:20:06;5.70;99.90
32097;DHT22;18610;49.916;8.284;2023-12-20T01:22:33;5.80;99.90
32097;DHT22;18610;49.916;8.284;2023-12-20T01:25:01;5.80;99.90
32097;DHT22;18610;49.916;8.284;2023-12-20T01:27:28;5.80;99.90
32097;DHT22;18610;49.916;8.284;2023-12-20T01:29:55;5.80;99.90
32097;DHT22;18610;49.916;8.284;2023-12-20T01:32:22;5.80;99.90
32097;DHT22;18610;49.916;8.284;2023-12-20T01:34:49;5.80;99.90
32097;DHT22;18610;49.916;8.284;2023-12-20T01:37:17;5.80;99.90
32097;DHT22;18610;49.916;8.284;2023-12-20T01:39:43;5.80;99.90
32097;DHT22;18610;49.916;8.284;2023-12-20T01:42:10;5.80;99.90
32097;DHT22;18610;49.916;8.284;2023-12-20T01:44:37;5.70;99.90
32097;DHT22;18610;49.916;8.284;2023-12-20T01:47:04;5.70;99.90
32097;DHT22;18610;49.916;8.284;2023-12-20T01:49:30;5.70;99.90
32097;DHT22;18610;49.916;8.284;2023-12-20T01:51:57;5.70;99.90
32097;DHT22;18610;49.916;8.284;2023-12-20T01:54:25;5.70;99.90
32097;DHT22;18610;49.916;8.284;2023-12-20T01:56:52;5.70;99.90
32097;DHT22;18610;49.916;8.284;2023-12-20T01:59:19;5.70;99.90
32097;DHT22;18610;49.916;8.284;2023-12-20T02:01:46;5.70;99.90
32097;DHT22;18610;49.916;8.284;2023-12-20T02:04:13;5.70;99.90
32097;DHT22;18610;49.916;8.284;2023-12-20T02:06:40;5.80;99.90
32097;DHT22;18610;49.916;8.284;2023-12-20T02:09:07;5.70;99.90
32097;DHT22;18610;49.916;8.284;2023-12-20T02:11:36;5.80;99.90
32097;DHT22;18610;49.916;8.284;2023-12-20T02:14:03;5.70;99.90
32097;DHT22;18610;49.916;8.284;2023-12-20T02:16:29;5.80;99.90
32097;DHT22;18610;49.916;8.284;2023-12-20T02:18:56;5.80;99.90
32097;DHT22;18610;49.916;8.284;2023-12-20T02:21:31;5.80;99.90
32097;DHT22;18610;49.916;8.284;2023-12-20T02:23:59;5.80;99.90
32097;DHT22;18610;49.916;8.284;2023-12-20T02:26:26;5.70;99.90
32097;DHT22;18610;49.916;8.284;2023-12-20T02:28:52;5.70;99.90
32097;DHT22;18610;49.916;8.284;2023-12-20T02:31:20;5.70;99.90
32097;DHT22;18610;49.916;8.284;2023-12-20T02:33:47;5.70;99.90
32097;DHT22;18610;49.916;8.284;2023-12-20T02:36:14;5.70;99.90
32097;DHT22;18610;49.916;8.284;2023-12-20T02:38:42;5.80;99.90
32097;DHT22;18610;49.916;8.284;2023-12-20T02:41:09;5.80;99.90
32097;DHT22;18610;49.916;8.284;2023-12-20T02:43:35;5.80;99.90
32097;DHT22;18610;49.916;8.284;2023-12-20T02:46:02;5.80;99.90
32097;DHT22;18610;49.916;8.284;2023-12-20T02:48:29;5.80;99.90
32097;DHT22;18610;49.916;8.284;2023-12-20T02:50:55;5.80;99.90
32097;DHT22;18610;49.916;8.284;2023-12-20T02:53:22;5.80;99.90
32097;DHT22;18610;49.916;8.284;2023-12-20T02:55:50;5.80;99.90
32097;DHT22;18610;49.916;8.284;2023-12-20T02:58:16;5.80;99.90
32097;DHT22;18610;49.916;8.284;2023-12-20T03:00:43;5.80;99.90
32097;DHT22;18610;49.916;8.284;2023-12-20T03:03:10;5.80;99.90
32097;DHT22;18610;49.916;8.284;2023-12-20T03:05:37;5.70;99.90
32097;DHT22;18610;49.916;8.284;2023-12-20T03:08:04;5.70;99.90
32097;DHT22;18610;49.916;8.284;2023-12-20T03:10:31;5.80;99.90
32097;DHT22;18610;49.916;8.284;2023-12-20T03:12:59;5.80;99.90
32097;DHT22;18610;49.916;8.284;2023-12-20T03:15:25;5.90;99.90
32097;DHT22;18610;49.916;8.284;2023-12-20T03:17:52;5.90;99.90
32097;DHT22;18610;49.916;8.284;2023-12-20T03:20:18;5.90;99.90
32097;DHT22;18610;49.916;8.284;2023-12-20T03:22:45;5.90;99.90
32097;DHT22;18610;49.916;8.284;2023-12-20T03:25:12;5.90;99.90
32097;DHT22;18610;49.916;8.284;2023-12-20T03:27:38;5.90;99.90
32097;DHT22;18610;49.916;8.284;2023-12-20T03:30:07;5.90;99.90
32097;DHT22;18610;49.916;8.284;2023-12-20T03:32:34;5.90;99.90
32097;DHT22;18610;49.916;8.284;2023-12-20T03:35:01;5.90;99.90
32097;DHT22;18610;49.916;8.284;2023-12-20T03:37:28;5.90;99.90
32097;DHT22;18610;49.916;8.284;2023-12-20T03:39:54;5.90;99.90
32097;DHT22;18610;49.916;8.284;2023-12-20T03:42:21;6.00;99.90
32097;DHT22;18610;49.916;8.284;2023-12-20T03:44:48;6.00;99.90
32097;DHT22;18610;49.916;8.284;2023-12-20T03:47:16;6.00;99.90
32097;DHT22;18610;49.916;8.284;2023-12-20T03:49:43;5.90;99.90
32097;DHT22;18610;49.916;8.284;2023-12-20T03:52:09;5.90;99.90
32097;DHT22;18610;49.916;8.284;2023-12-20T03:54:36;5.90;99.90
32097;DHT22;18610;49.916;8.284;2023-12-20T03:57:03;5.80;99.90
32097;DHT22;18610;49.916;8.284;2023-12-20T03:59:30;5.80;99.90
32097;DHT22;18610;49.916;8.284;2023-12-20T04:01:56;5.80;99.90
32097;DHT22;18610;49.916;8.284;2023-12-20T04:04:24;5.80;99.90
32097;DHT22;18610;49.916;8.284;2023-12-20T04:06:51;5.90;99.90
32097;DHT22;18610;49.916;8.284;2023-12-20T04:09:18;5.80;99.90
32097;DHT22;18610;49.916;8.284;2023-12-20T04:11:44;5.90;99.90
32097;DHT22;18610;49.916;8.284;2023-12-20T04:14:11;5.90;99.90
32097;DHT22;18610;49.916;8.284;2023-12-20T04:16:38;6.00;99.90
32097;DHT22;18610;49.916;8.284;2023-12-20T04:19:05;6.10;99.90
32097;DHT22;18610;49.916;8.284;2023-12-20T04:21:33;6.10;99.90
32097;DHT22;18610;49.916;8.284;2023-12-20T04:23:59;6.20;99.90
32097;DHT22;18610;49.916;8.284;2023-12-20T04:26:26;6.30;99.90
32097;DHT22;18610;49.916;8.284;2023-12-20T04:28:53;6.30;99.90
32097;DHT22;18610;49.916;8.284;2023-12-20T04:31:19;6.20;99.90
32097;DHT22;18610;49.916;8.284;2023-12-20T04:33:46;6.20;99.90
32097;DHT22;18610;49.916;8.284;2023-12-20T04:36:13;6.20;99.90
32097;DHT22;18610;49.916;8.284;2023-12-20T04:38:41;6.20;99.90
32097;DHT22;18610;49.916;8.284;2023-12-20T04:41:07;6.30;99.90
32097;DHT22;18610;49.916;8.284;2023-12-20T04:43:34;6.20;99.90
32097;DHT22;18610;49.916;8.284;2023-12-20T04:46:01;6.20;99.90
32097;DHT22;18610;49.916;8.284;2023-12-20T04:48:27;6.10;99.90
32097;DHT22;18610;49.916;8.284;2023-12-20T04:50:54;6.20;99.90
32097;DHT22;18610;49.916;8.284;2023-12-20T04:53:21;6.20;99.90
32097;DHT22;18610;49.916;8.284;2023-12-20T04:55:49;6.20;99.90
32097;DHT22;18610;49.916;8.284;2023-12-20T04:58:16;6.20;99.90
32097;DHT22;18610;49.916;8.284;2023-12-20T05:00:43;6.20;99.90
32097;DHT22;18610;49.916;8.284;2023-12-20T05:03:09;6.10;99.90
32097;DHT22;18610;49.916;8.284;2023-12-20T05:05:36;6.10;99.90
32097;DHT22;18610;49.916;8.284;2023-12-20T05:08:03;6.20;99.90
32097;DHT22;18610;49.916;8.284;2023-12-20T05:10:30;6.20;99.90
32097;DHT22;18610;49.916;8.284;2023-12-20T05:12:58;6.20;99.90
32097;DHT22;18610;49.916;8.284;2023-12-20T05:15:25;6.20;99.90
32097;DHT22;18610;49.916;8.284;2023-12-20T05:17:51;6.20;99.90
32097;DHT22;18610;49.916;8.284;2023-12-20T05:20:18;6.20;99.90
32097;DHT22;18610;49.916;8.284;2023-12-20T05:22:44;6.20;99.90
32097;DHT22;18610;49.916;8.284;2023-12-20T05:25:12;6.20;99.90
32097;DHT22;18610;49.916;8.284;2023-12-20T05:27:39;6.20;99.90
32097;DHT22;18610;49.916;8.284;2023-12-20T05:30:08;6.20;99.90
32097;DHT22;18610;49.916;8.284;2023-12-20T05:32:35;6.10;99.90
32097;DHT22;18610;49.916;8.284;2023-12-20T05:35:02;6.10;99.90
32097;DHT22;18610;49.916;8.284;2023-12-20T05:37:29;6.00;99.90
32097;DHT22;18610;49.916;8.284;2023-12-20T05:39:56;6.10;99.90
32097;DHT22;18610;49.916;8.284;2023-12-20T05:42:22;6.00;99.90
32097;DHT22;18610;49.916;8.284;2023-12-20T05:44:49;6.00;99.90
32097;DHT22;18610;49.916;8.284;2023-12-20T05:47:17;6.00;99.90
32097;DHT22;18610;49.916;8.284;2023-12-20T05:49:44;6.00;99.90
32097;DHT22;18610;49.916;8.284;2023-12-20T05:52:11;6.00;99.90
32097;DHT22;18610;49.916;8.284;2023-12-20T05:54:38;6.00;99.90
32097;DHT22;18610;49.916;8.284;2023-12-20T05:57:05;6.10;99.90
32097;DHT22;18610;49.916;8.284;2023-12-20T05:59:31;6.10;99.90
32097;DHT22;18610;49.916;8.284;2023-12-20T06:01:58;6.00;99.90
32097;DHT22;18610;49.916;8.284;2023-12-20T06:04:26;6.00;99.90
32097;DHT22;18610;49.916;8.284;2023-12-20T06:06:52;6.00;99.90
32097;DHT22;18610;49.916;8.284;2023-12-20T06:09:19;5.90;99.90
32097;DHT22;18610;49.916;8.284;2023-12-20T06:11:46;6.00;99.90
32097;DHT22;18610;49.916;8.284;2023-12-20T06:14:12;6.00;99.90
32097;DHT22;18610;49.916;8.284;2023-12-20T06:16:39;5.90;99.90
32097;DHT22;18610;49.916;8.284;2023-12-20T06:19:06;5.90;99.90
32097;DHT22;18610;49.916;8.284;2023-12-20T06:21:33;5.80;99.90
32097;DHT22;18610;49.916;8.284;2023-12-20T06:24:00;5.80;99.90
32097;DHT22;18610;49.916;8.284;2023-12-20T06:26:27;5.80;99.90
32097;DHT22;18610;49.916;8.284;2023-12-20T06:28:53;5.80;99.90
32097;DHT22;18610;49.916;8.284;2023-12-20T06:31:20;5.80;99.90
32097;DHT22;18610;49.916;8.284;2023-12-20T06:33:47;5.80;99.90
32097;DHT22;18610;49.916;8.284;2023-12-20T06:36:15;5.80;99.90
32097;DHT22;18610;49.916;8.284;2023-12-20T06:38:43;5.70;99.90
32097;DHT22;18610;49.916;8.284;2023-12-20T06:41:13;5.70;99.90
32097;DHT22;18610;49.916;8.284;2023-12-20T06:43:39;5.60;99.90
32097;DHT22;18610;49.916;8.284;2023-12-20T06:46:06;5.60;99.90
32097;DHT22;18610;49.916;8.284;2023-12-20T06:48:34;5.60;99.90
32097;DHT22;18610;49.916;8.284;2023-12-20T06:51:01;5.50;99.90
32097;DHT22;18610;49.916;8.284;2023-12-20T06:53:28;5.50;99.90
32097;DHT22;18610;49.916;8.284;2023-12-20T06:55:56;5.50;99.90
32097;DHT22;18610;49.916;8.284;2023-12-20T06:58:23;5.50;99.90
32097;DHT22;18610;49.916;8.284;2023-12-20T07:00:50;5.50;99.90
32097;DHT22;18610;49.916;8.284;2023-12-20T07:03:17;5.50;99.90
32097;DHT22;18610;49.916;8.284;2023-12-20T07:05:43;5.50;99.90
32097;DHT22;18610;49.916;8.284;2023-12-20T07:08:10;5.50;99.90
32097;DHT22;18610;49.916;8.284;2023-12-20T07:10:39;5.40;99.90
32097;DHT22;18610;49.916;8.284;2023-12-20T07:13:07;5.40;99.90
32097;DHT22;18610;49.916;8.284;2023-12-20T07:15:34;5.40;99.90
32097;DHT22;18610;49.916;8.284;2023-12-20T07:18:02;5.40;99.90
32097;DHT22;18610;49.916;8.284;2023-12-20T07:20:29;5.30;99.90
32097;DHT22;18610;49.916;8.284;2023-12-20T07:22:55;5.40;99.90
32097;DHT22;18610;49.916;8.284;2023-12-20T07:25:22;5.40;99.90
32097;DHT22;18610;49.916;8.284;2023-12-20T07:27:49;5.40;99.90
32097;DHT22;18610;49.916;8.284;2023-12-20T07:30:19;5.40;99.90
32097;DHT22;18610;49.916;8.284;2023-12-20T07:32:45;5.50;99.90
32097;DHT22;18610;49.916;8.284;2023-12-20T07:35:12;5.50;99.90
32097;DHT22;18610;49.916;8.284;2023-12-20T07:37:39;5.50;99.90
32097;DHT22;18610;49.916;8.284;2023-12-20T07:40:07;5.60;99.90
32097;DHT22;18610;49.916;8.284;2023-12-20T07:42:34;5.60;99.90
32097;DHT22;18610;49.916;8.284;2023-12-20T07:45:01;5.60;99.90
32097;DHT22;18610;49.916;8.284;2023-12-20T07:47:29;5.60;99.90
32097;DHT22;18610;49.916;8.284;2023-12-20T07:49:55;5.60;99.90
32097;DHT22;18610;49.916;8.284;2023-12-20T07:52:22;5.60;99.90
32097;DHT22;18610;49.916;8.284;2023-12-20T07:54:49;5.60;99.90
32097;DHT22;18610;49.916;8.284;2023-12-20T07:57:16;5.50;99.90
32097;DHT22;18610;49.916;8.284;2023-12-20T07:59:42;5.50;99.90
32097;DHT22;18610;49.916;8.284;2023-12-20T08:02:10;5.50;99.90
32097;DHT22;18610;49.916;8.284;2023-12-20T08:04:38;5.60;99.90
32097;DHT22;18610;49.916;8.284;2023-12-20T08:07:04;5.60;99.90
32097;DHT22;18610;49.916;8.284;2023-12-20T08:09:31;5.70;99.90
32097;DHT22;18610;49.916;8.284;2023-12-20T08:11:59;5.80;99.90
32097;DHT22;18610;49.916;8.284;2023-12-20T08:14:26;5.80;99.90
32097;DHT22;18610;49.916;8.284;2023-12-20T08:16:52;6.00;99.90
32097;DHT22;18610;49.916;8.284;2023-12-20T08:19:19;6.00;99.90
32097;DHT22;18610;49.916;8.284;2023-12-20T08:21:47;6.10;99.90
32097;DHT22;18610;49.916;8.284;2023-12-20T08:24:14;6.20;99.90
32097;DHT22;18610;49.916;8.284;2023-12-20T08:26:40;6.30;99.90
32097;DHT22;18610;49.916;8.284;2023-12-20T08:29:07;6.40;99.90
32097;DHT22;18610;49.916;8.284;2023-12-20T08:31:34;6.40;99.90
32097;DHT22;18610;49.916;8.284;2023-12-20T08:34:00;6.40;99.90
32097;DHT22;18610;49.916;8.284;2023-12-20T08:36:27;6.40;99.90
32097;DHT22;18610;49.916;8.284;2023-12-20T08:38:55;6.40;99.90
32097;DHT22;18610;49.916;8.284;2023-12-20T08:41:22;6.50;99.90
32097;DHT22;18610;49.916;8.284;2023-12-20T08:43:48;6.50;99.90
32097;DHT22;18610;49.916;8.284;2023-12-20T08:46:15;6.50;99.90
32097;DHT22;18610;49.916;8.284;2023-12-20T08:48:41;6.60;99.90
32097;DHT22;18610;49.916;8.284;2023-12-20T08:51:07;6.60;99.90
32097;DHT22;18610;49.916;8.284;2023-12-20T08:53:34;6.60;99.90
32097;DHT22;18610;49.916;8.284;2023-12-20T08:56:03;6.60;99.90
32097;DHT22;18610;49.916;8.284;2023-12-20T08:58:30;6.60;99.90
32097;DHT22;18610;49.916;8.284;2023-12-20T09:00:57;6.50;99.90
32097;DHT22;18610;49.916;8.284;2023-12-20T09:03:23;6.40;99.90
32097;DHT22;18610;49.916;8.284;2023-12-20T09:05:50;6.40;99.90
32097;DHT22;18610;49.916;8.284;2023-12-20T09:08:17;6.40;99.90
32097;DHT22;18610;49.916;8.284;2023-12-20T09:10:43;6.40;99.90
32097;DHT22;18610;49.916;8.284;2023-12-20T09:13:12;6.60;99.90
32097;DHT22;18610;49.916;8.284;2023-12-20T09:15:38;6.50;99.90
32097;DHT22;18610;49.916;8.284;2023-12-20T09:18:06;6.60;99.90
32097;DHT22;18610;49.916;8.284;2023-12-20T09:20:32;6.60;99.90
32097;DHT22;18610;49.916;8.284;2023-12-20T09:22:59;6.60;99.90
32097;DHT22;18610;49.916;8.284;2023-12-20T09:25:26;6.60;99.90
32097;DHT22;18610;49.916;8.284;2023-12-20T09:27:53;6.70;99.90
32097;DHT22;18610;49.916;8.284;2023-12-20T09:30:21;6.70;99.90
32097;DHT22;18610;49.916;8.284;2023-12-20T09:32:48;6.70;99.90
32097;DHT22;18610;49.916;8.284;2023-12-20T09:35:15;6.70;99.90
32097;DHT22;18610;49.916;8.284;2023-12-20T09:37:42;6.80;99.90
32097;DHT22;18610;49.916;8.284;2023-12-20T09:40:13;6.80;99.90
32097;DHT22;18610;49.916;8.284;2023-12-20T09:42:43;6.80;99.90
32097;DHT22;18610;49.916;8.284;2023-12-20T09:45:13;6.80;99.90
32097;DHT22;18610;49.916;8.284;2023-12-20T09:47:43;6.80;99.90
32097;DHT22;18610;49.916;8.284;2023-12-20T09:50:11;6.80;99.90
32097;DHT22;18610;49.916;8.284;2023-12-20T09:52:39;6.80;99.90
32097;DHT22;18610;49.916;8.284;2023-12-20T09:55:07;6.80;99.90
32097;DHT22;18610;49.916;8.284;2023-12-20T09:57:35;6.90;99.90
32097;DHT22;18610;49.916;8.284;2023-12-20T10:00:01;7.00;99.90
32097;DHT22;18610;49.916;8.284;2023-12-20T10:02:29;7.00;99.90
32097;DHT22;18610;49.916;8.284;2023-12-20T10:04:59;7.00;99.90
32097;DHT22;18610;49.916;8.284;2023-12-20T10:07:27;7.10;99.90
32097;DHT22;18610;49.916;8.284;2023-12-20T10:09:54;7.20;99.90
32097;DHT22;18610;49.916;8.284;2023-12-20T10:12:21;7.30;99.90
32097;DHT22;18610;49.916;8.284;2023-12-20T10:14:48;7.60;99.90
32097;DHT22;18610;49.916;8.284;2023-12-20T10:17:14;7.80;99.90
32097;DHT22;18610;49.916;8.284;2023-12-20T10:19:43;8.10;99.90
32097;DHT22;18610;49.916;8.284;2023-12-20T10:22:11;8.40;99.90
32097;DHT22;18610;49.916;8.284;2023-12-20T10:24:37;8.60;99.90
32097;DHT22;18610;49.916;8.284;2023-12-20T10:27:05;8.80;99.90
32097;DHT22;18610;49.916;8.284;2023-12-20T10:29:32;8.90;99.90
32097;DHT22;18610;49.916;8.284;2023-12-20T10:31:59;9.10;99.90
32097;DHT22;18610;49.916;8.284;2023-12-20T10:34:26;9.20;99.90
32097;DHT22;18610;49.916;8.284;2023-12-20T10:36:53;9.20;99.90
32097;DHT22;18610;49.916;8.284;2023-12-20T10:39:21;9.20;99.90
32097;DHT22;18610;49.916;8.284;2023-12-20T10:41:49;9.30;99.90
32097;DHT22;18610;49.916;8.284;2023-12-20T10:44:15;9.30;99.90
32097;DHT22;18610;49.916;8.284;2023-12-20T10:46:42;9.40;99.90
32097;DHT22;18610;49.916;8.284;2023-12-20T10:49:16;9.60;99.90
32097;DHT22;18610;49.916;8.284;2023-12-20T10:51:44;9.90;99.90
32097;DHT22;18610;49.916;8.284;2023-12-20T10:54:12;10.10;99.90
32097;DHT22;18610;49.916;8.284;2023-12-20T10:56:40;10.40;99.90
32097;DHT22;18610;49.916;8.284;2023-12-20T10:59:10;10.50;99.90
32097;DHT22;18610;49.916;8.284;2023-12-20T11:01:38;10.70;99.90
32097;DHT22;18610;49.916;8.284;2023-12-20T11:04:10;11.10;99.90
32097;DHT22;18610;49.916;8.284;2023-12-20T11:06:47;11.70;99.90
32097;DHT22;18610;49.916;8.284;2023-12-20T11:09:22;12.40;99.90
32097;DHT22;18610;49.916;8.284;2023-12-20T11:11:59;13.60;99.90
32097;DHT22;18610;49.916;8.284;2023-12-20T11:14:34;14.70;97.10
32097;DHT22;18610;49.916;8.284;2023-12-20T11:17:08;15.70;94.80
32097;DHT22;18610;49.916;8.284;2023-12-20T11:19:37;16.50;91.60
32097;DHT22;18610;49.916;8.284;2023-12-20T11:22:04;17.00;90.10
32097;DHT22;18610;49.916;8.284;2023-12-20T11:24:32;17.80;87.60
32097;DHT22;18610;49.916;8.284;2023-12-20T11:27:01;18.70;82.00
32097;DHT22;18610;49.916;8.284;2023-12-20T11:29:33;19.30;78.10
32097;DHT22;18610;49.916;8.284;2023-12-20T11:32:01;19.40;74.90
32097;DHT22;18610;49.916;8.284;2023-12-20T11:34:28;19.70;72.80
32097;DHT22;18610;49.916;8.284;2023-12-20T11:36:58;20.20;70.50
32097;DHT22;18610;49.916;8.284;2023-12-20T11:39:26;20.20;66.70
32097;DHT22;18610;49.916;8.284;2023-12-20T11:41:54;19.10;68.10
32097;DHT22;18610;49.916;8.284;2023-12-20T11:44:24;17.40;71.00
32097;DHT22;18610;49.916;8.284;2023-12-20T11:46:51;15.60;77.90
32097;DHT22;18610;49.916;8.284;2023-12-20T11:49:23;14.00;82.60
32097;DHT22;18610;49.916;8.284;2023-12-20T11:51:49;12.90;87.90
32097;DHT22;18610;49.916;8.284;2023-12-20T11:54:16;12.00;90.80
32097;DHT22;18610;49.916;8.284;2023-12-20T11:56:43;11.30;92.60
32097;DHT22;18610;49.916;8.284;2023-12-20T11:59:10;10.70;94.70
32097;DHT22;18610;49.916;8.284;2023-12-20T12:01:38;10.20;95.70
32097;DHT22;18610;49.916;8.284;2023-12-20T12:04:05;9.90;97.30
32097;DHT22;18610;49.916;8.284;2023-12-20T12:06:32;9.60;99.10
32097;DHT22;18610;49.916;8.284;2023-12-20T12:08:58;9.30;99.90
32097;DHT22;18610;49.916;8.284;2023-12-20T12:11:25;9.10;99.90
32097;DHT22;18610;49.916;8.284;2023-12-20T12:13:52;9.00;99.90
32097;DHT22;18610;49.916;8.284;2023-12-20T12:16:20;9.00;99.90
32097;DHT22;18610;49.916;8.284;2023-12-20T12:18:56;9.30;99.90
32097;DHT22;18610;49.916;8.284;2023-12-20T12:21:23;9.90;99.90
32097;DHT22;18610;49.916;8.284;2023-12-20T12:23:50;11.10;99.60
32097;DHT22;18610;49.916;8.284;2023-12-20T12:26:16;11.80;97.90
32097;DHT22;18610;49.916;8.284;2023-12-20T12:28:43;12.00;97.40
32097;DHT22;18610;49.916;8.284;2023-12-20T12:31:13;11.80;97.10
32097;DHT22;18610;49.916;8.284;2023-12-20T12:33:41;11.50;97.80
32097;DHT22;18610;49.916;8.284;2023-12-20T12:36:10;11.20;98.00
32097;DHT22;18610;49.916;8.284;2023-12-20T12:38:37;10.80;98.70
32097;DHT22;18610;49.916;8.284;2023-12-20T12:41:04;10.30;99.70
32097;DHT22;18610;49.916;8.284;2023-12-20T12:43:32;9.90;99.90
32097;DHT22;18610;49.916;8.284;2023-12-20T12:45:59;9.70;99.90
32097;DHT22;18610;49.916;8.284;2023-12-20T12:48:25;9.50;99.90
32097;DHT22;18610;49.916;8.284;2023-12-20T12:50:53;9.60;99.90
32097;DHT22;18610;49.916;8.284;2023-12-20T12:53:25;9.60;99.90
32097;DHT22;18610;49.916;8.284;2023-12-20T12:55:55;9.60;99.90
32097;DHT22;18610;49.916;8.284;2023-12-20T12:58:22;9.70;99.90
32097;DHT22;18610;49.916;8.284;2023-12-20T13:00:50;9.60;99.90
32097;DHT22;18610;49.916;8.284;2023-12-20T13:03:17;9.70;99.90
32097;DHT22;18610;49.916;8.284;2023-12-20T13:05:44;10.10;99.90
32097;DHT22;18610;49.916;8.284;2023-12-20T13:08:10;10.60;99.90
32097;DHT22;18610;49.916;8.284;2023-12-20T13:10:39;11.30;99.90
32097;DHT22;18610;49.916;8.284;2023-12-20T13:13:05;11.90;99.90
32097;DHT22;18610;49.916;8.284;2023-12-20T13:15:32;12.40;99.30
32097;DHT22;18610;49.916;8.284;2023-12-20T13:17:59;12.90;98.20
32097;DHT22;18610;49.916;8.284;2023-12-20T13:20:26;13.40;97.20
32097;DHT22;18610;49.916;8.284;2023-12-20T13:22:53;13.80;96.50
32097;DHT22;18610;49.916;8.284;2023-12-20T13:25:19;14.20;95.90
32097;DHT22;18610;49.916;8.284;2023-12-20T13:27:47;14.50;94.90
32097;DHT22;18610;49.916;8.284;2023-12-20T13:30:15;14.80;94.10
32097;DHT22;18610;49.916;8.284;2023-12-20T13:32:42;14.90;93.30
32097;DHT22;18610;49.916;8.284;2023-12-20T13:35:09;15.00;93.40
32097;DHT22;18610;49.916;8.284;2023-12-20T13:37:35;15.30;92.30
32097;DHT22;18610;49.916;8.284;2023-12-20T13:40:03;15.40;91.60
32097;DHT22;18610;49.916;8.284;2023-12-20T13:42:31;15.50;91.50
32097;DHT22;18610;49.916;8.284;2023-12-20T13:44:59;15.60;91.70
32097;DHT22;18610;49.916;8.284;2023-12-20T13:47:26;15.60;91.30
32097;DHT22;18610;49.916;8.284;2023-12-20T13:49:52;15.40;90.90
32097;DHT22;18610;49.916;8.284;2023-12-20T13:52:19;15.20;91.20
32097;DHT22;18610;49.916;8.284;2023-12-20T13:54:46;14.80;91.00
32097;DHT22;18610;49.916;8.284;2023-12-20T13:57:13;14.50;91.70
32097;DHT22;18610;49.916;8.284;2023-12-20T13:59:39;13.90;92.60
32097;DHT22;18610;49.916;8.284;2023-12-20T14:02:07;13.50;93.40
32097;DHT22;18610;49.916;8.284;2023-12-20T14:04:34;13.10;93.60
32097;DHT22;18610;49.916;8.284;2023-12-20T14:07:01;12.60;94.30
32097;DHT22;18610;49.916;8.284;2023-12-20T14:09:28;12.20;95.00
32097;DHT22;18610;49.916;8.284;2023-12-20T14:11:54;11.80;95.90
32097;DHT22;18610;49.916;8.284;2023-12-20T14:14:21;11.40;97.40
32097;DHT22;18610;49.916;8.284;2023-12-20T14:16:48;11.00;98.10
32097;DHT22;18610;49.916;8.284;2023-12-20T14:19:16;10.80;98.90
32097;DHT22;18610;49.916;8.284;2023-12-20T14:21:43;10.70;99.60
32097;DHT22;18610;49.916;8.284;2023-12-20T14:24:11;10.40;99.90
32097;DHT22;18610;49.916;8.284;2023-12-20T14:26:40;10.20;99.90
32097;DHT22;18610;49.916;8.284;2023-12-20T14:29:07;9.90;99.90
32097;DHT22;18610;49.916;8.284;2023-12-20T14:31:34;9.70;99.90
32097;DHT22;18610;49.916;8.284;2023-12-20T14:34:02;9.50;99.90
32097;DHT22;18610;49.916;8.284;2023-12-20T14:36:31;9.40;99.90
32097;DHT22;18610;49.916;8.284;2023-12-20T14:38:58;9.30;99.90
32097;DHT22;18610;49.916;8.284;2023-12-20T14:41:24;9.30;99.90
32097;DHT22;18610;49.916;8.284;2023-12-20T14:43:51;9.20;99.90
32097;DHT22;18610;49.916;8.284;2023-12-20T14:46:18;9.10;99.90
32097;DHT22;18610;49.916;8.284;2023-12-20T14:48:45;9.00;99.90
32097;DHT22;18610;49.916;8.284;2023-12-20T14:51:11;8.80;99.90
32097;DHT22;18610;49.916;8.284;2023-12-20T14:53:39;8.60;99.90
32097;DHT22;18610;49.916;8.284;2023-12-20T14:56:07;8.50;99.90
32097;DHT22;18610;49.916;8.284;2023-12-20T14:58:34;8.40;99.90
32097;DHT22;18610;49.916;8.284;2023-12-20T15:01:02;8.40;99.90
32097;DHT22;18610;49.916;8.284;2023-12-20T15:03:29;8.40;99.90
32097;DHT22;18610;49.916;8.284;2023-12-20T15:05:56;8.30;99.90
32097;DHT22;18610;49.916;8.284;2023-12-20T15:08:24;8.20;99.90
32097;DHT22;18610;49.916;8.284;2023-12-20T15:10:52;8.10;99.90
32097;DHT22;18610;49.916;8.284;2023-12-20T15:13:18;8.00;99.90
32097;DHT22;18610;49.916;8.284;2023-12-20T15:15:45;8.00;99.90
32097;DHT22;18610;49.916;8.284;2023-12-20T15:18:12;8.00;99.90
32097;DHT22;18610;49.916;8.284;2023-12-20T15:20:39;7.90;99.90
32097;DHT22;18610;49.916;8.284;2023-12-20T15:23:09;8.00;99.90
32097;DHT22;18610;49.916;8.284;2023-12-20T15:25:36;7.90;99.90
32097;DHT22;18610;49.916;8.284;2023-12-20T15:28:04;7.90;99.90
32097;DHT22;18610;49.916;8.284;2023-12-20T15:30:30;7.80;99.90
32097;DHT22;18610;49.916;8.284;2023-12-20T15:32:57;7.70;99.90
32097;DHT22;18610;49.916;8.284;2023-12-20T15:35:24;7.70;99.90
32097;DHT22;18610;49.916;8.284;2023-12-20T15:37:50;7.60;99.90
32097;DHT22;18610;49.916;8.284;2023-12-20T15:40:17;7.60;99.90
32097;DHT22;18610;49.916;8.284;2023-12-20T15:42:44;7.60;99.90